Kurtistown, Hawaii
Current Conditions -  °F | °C
As of 10:53 PM on Thursday 23 Oct 2014 (Local Time) from PHTO Reporting Station
Overcast Overcast  
Wind Chill: 73°   Ceiling: 3000
Heat Index: 73°   Visibility: 10mi
Dew Point: 70°   Wind: 6mph
Humidity: 90%   Direction: 220°SW
Pressure: 30.06"   Gusts: NA
Location:  19.59°N, 155.05°W
Report Text: PHTO 240853Z AUTO 22005KT 10SM SCT023 BKN030 OVC048 23/21 A3006 RMK AO2 RAE0758 SLP179 P0000 60000 T02280211 50002 TSNO
Loading
Personal Weather Stations






























Interactive Weather Map
Tropical Storm Tracking
New forecast layout! Learn more

10-Day Weather Forecast

Advertisements
Track Severe Weather on mobile